sensor_id;sensor_type;location;lat;lon;timestamp;pressure;altitude;pressure_sealevel;temperature;humidity
40596;BME280;26304;48.794;9.820;2023-02-19T00:02:03;96794.75;;;18.94;52.29
40596;BME280;26304;48.794;9.820;2023-02-19T00:07:45;96784.94;;;18.91;52.34
40596;BME280;26304;48.794;9.820;2023-02-19T00:13:29;96782.28;;;18.91;52.17
40596;BME280;26304;48.794;9.820;2023-02-19T00:19:14;96781.91;;;18.88;52.64
40596;BME280;26304;48.794;9.820;2023-02-19T00:24:56;96783.41;;;18.86;52.28
40596;BME280;26304;48.794;9.820;2023-02-19T00:30:40;96782.22;;;18.83;52.03
40596;BME280;26304;48.794;9.820;2023-02-19T00:36:23;96777.66;;;18.80;52.81
40596;BME280;26304;48.794;9.820;2023-02-19T00:42:06;96779.56;;;18.80;52.30
40596;BME280;26304;48.794;9.820;2023-02-19T00:47:50;96777.28;;;18.78;53.04
40596;BME280;26304;48.794;9.820;2023-02-19T00:53:32;96779.50;;;18.76;52.70
40596;BME280;26304;48.794;9.820;2023-02-19T00:59:15;96776.84;;;18.76;52.34
40596;BME280;26304;48.794;9.820;2023-02-19T01:04:58;96770.44;;;18.74;52.49
40596;BME280;26304;48.794;9.820;2023-02-19T01:10:41;96761.38;;;18.71;52.79
40596;BME280;26304;48.794;9.820;2023-02-19T01:16:24;96757.25;;;18.70;52.70
40596;BME280;26304;48.794;9.820;2023-02-19T01:22:08;96750.47;;;18.69;52.41
40596;BME280;26304;48.794;9.820;2023-02-19T01:27:51;96750.06;;;18.67;52.83
40596;BME280;26304;48.794;9.820;2023-02-19T01:33:33;96738.41;;;18.68;52.28
40596;BME280;26304;48.794;9.820;2023-02-19T01:39:17;96721.47;;;18.65;52.70
40596;BME280;26304;48.794;9.820;2023-02-19T01:45:25;96704.16;;;18.64;52.53
40596;BME280;26304;48.794;9.820;2023-02-19T01:51:11;96721.81;;;18.64;52.37
40596;BME280;26304;48.794;9.820;2023-02-19T01:56:58;96692.44;;;18.62;52.57
40596;BME280;26304;48.794;9.820;2023-02-19T02:02:43;96691.69;;;18.61;52.49
40596;BME280;26304;48.794;9.820;2023-02-19T02:08:27;96687.97;;;18.62;52.68
40596;BME280;26304;48.794;9.820;2023-02-19T02:14:33;96696.94;;;18.58;52.73
40596;BME280;26304;48.794;9.820;2023-02-19T02:20:30;96695.41;;;18.57;52.72
40596;BME280;26304;48.794;9.820;2023-02-19T02:26:24;96688.28;;;18.57;52.69
40596;BME280;26304;48.794;9.820;2023-02-19T02:32:13;96687.88;;;18.55;52.29
40596;BME280;26304;48.794;9.820;2023-02-19T02:38:01;96679.22;;;18.55;52.27
40596;BME280;26304;48.794;9.820;2023-02-19T02:43:44;96687.13;;;18.55;52.43
40596;BME280;26304;48.794;9.820;2023-02-19T02:49:27;96674.69;;;18.51;52.55
40596;BME280;26304;48.794;9.820;2023-02-19T02:55:10;96670.53;;;18.50;52.55
40596;BME280;26304;48.794;9.820;2023-02-19T03:00:56;96660.00;;;18.50;52.49
40596;BME280;26304;48.794;9.820;2023-02-19T03:07:03;96666.41;;;18.49;52.49
40596;BME280;26304;48.794;9.820;2023-02-19T03:12:49;96666.47;;;18.60;51.96
40596;BME280;26304;48.794;9.820;2023-02-19T03:18:52;96660.22;;;19.20;50.79
40596;BME280;26304;48.794;9.820;2023-02-19T03:24:57;96666.66;;;20.04;49.20
40596;BME280;26304;48.794;9.820;2023-02-19T03:30:59;96669.84;;;20.71;48.01
40596;BME280;26304;48.794;9.820;2023-02-19T03:36:44;96659.25;;;21.50;46.61
40596;BME280;26304;48.794;9.820;2023-02-19T03:42:35;96653.69;;;22.14;45.47
40596;BME280;26304;48.794;9.820;2023-02-19T03:48:26;96648.47;;;22.04;45.67
40596;BME280;26304;48.794;9.820;2023-02-19T03:54:12;96651.22;;;22.53;45.09
40596;BME280;26304;48.794;9.820;2023-02-19T04:00:03;96667.16;;;23.01;44.45
40596;BME280;26304;48.794;9.820;2023-02-19T04:05:51;96661.66;;;23.23;43.94
40596;BME280;26304;48.794;9.820;2023-02-19T04:11:35;96662.97;;;23.00;44.37
40596;BME280;26304;48.794;9.820;2023-02-19T04:17:23;96665.72;;;22.37;45.91
40596;BME280;26304;48.794;9.820;2023-02-19T04:23:08;96679.47;;;22.03;46.95
40596;BME280;26304;48.794;9.820;2023-02-19T04:28:51;96676.56;;;21.80;47.44
40596;BME280;26304;48.794;9.820;2023-02-19T04:34:36;96689.50;;;21.52;47.95
40596;BME280;26304;48.794;9.820;2023-02-19T04:40:18;96701.19;;;21.33;48.35
40596;BME280;26304;48.794;9.820;2023-02-19T04:46:01;96701.22;;;21.19;48.68
40596;BME280;26304;48.794;9.820;2023-02-19T04:51:45;96700.81;;;21.13;48.70
40596;BME280;26304;48.794;9.820;2023-02-19T04:57:27;96711.75;;;21.40;48.14
40596;BME280;26304;48.794;9.820;2023-02-19T05:03:09;96712.78;;;21.97;47.09
40596;BME280;26304;48.794;9.820;2023-02-19T05:08:53;96715.09;;;22.65;45.67
40596;BME280;26304;48.794;9.820;2023-02-19T05:14:35;96716.34;;;23.10;44.89
40596;BME280;26304;48.794;9.820;2023-02-19T05:20:18;96713.28;;;22.55;46.08
40596;BME280;26304;48.794;9.820;2023-02-19T05:26:07;96729.69;;;22.25;46.80
40596;BME280;26304;48.794;9.820;2023-02-19T05:31:50;96738.44;;;22.11;46.95
40596;BME280;26304;48.794;9.820;2023-02-19T05:37:32;96758.19;;;21.77;47.72
40596;BME280;26304;48.794;9.820;2023-02-19T05:43:16;96755.59;;;21.63;48.18
40596;BME280;26304;48.794;9.820;2023-02-19T05:48:59;96758.25;;;21.59;48.14
40596;BME280;26304;48.794;9.820;2023-02-19T05:54:41;96778.66;;;21.45;48.31
40596;BME280;26304;48.794;9.820;2023-02-19T06:00:25;96764.69;;;21.51;48.37
40596;BME280;26304;48.794;9.820;2023-02-19T06:06:08;96771.09;;;21.57;48.31
40596;BME280;26304;48.794;9.820;2023-02-19T06:11:51;96776.34;;;21.83;47.84
40596;BME280;26304;48.794;9.820;2023-02-19T06:17:35;96787.84;;;22.57;46.86
40596;BME280;26304;48.794;9.820;2023-02-19T06:23:17;96797.94;;;22.84;46.35
40596;BME280;26304;48.794;9.820;2023-02-19T06:29:00;96780.13;;;23.44;45.63
40596;BME280;26304;48.794;9.820;2023-02-19T06:34:44;96787.97;;;22.99;45.73
40596;BME280;26304;48.794;9.820;2023-02-19T06:40:26;96809.59;;;21.98;47.54
40596;BME280;26304;48.794;9.820;2023-02-19T06:46:10;96816.41;;;21.88;47.48
40596;BME280;26304;48.794;9.820;2023-02-19T06:51:54;96820.16;;;21.98;47.10
40596;BME280;26304;48.794;9.820;2023-02-19T06:57:37;96822.09;;;21.94;47.51
40596;BME280;26304;48.794;9.820;2023-02-19T07:03:19;96819.44;;;21.90;48.03
40596;BME280;26304;48.794;9.820;2023-02-19T07:09:05;96821.31;;;21.90;48.27
40596;BME280;26304;48.794;9.820;2023-02-19T07:14:47;96834.19;;;21.84;48.36
40596;BME280;26304;48.794;9.820;2023-02-19T07:20:30;96831.53;;;21.81;48.43
40596;BME280;26304;48.794;9.820;2023-02-19T07:26:15;96836.47;;;21.75;48.43
40596;BME280;26304;48.794;9.820;2023-02-19T07:31:58;96842.13;;;21.66;48.88
40596;BME280;26304;48.794;9.820;2023-02-19T07:37:40;96845.91;;;21.62;48.65
40596;BME280;26304;48.794;9.820;2023-02-19T07:43:25;96853.50;;;21.56;48.78
40596;BME280;26304;48.794;9.820;2023-02-19T07:49:08;96869.72;;;21.58;48.95
40596;BME280;26304;48.794;9.820;2023-02-19T07:54:50;96870.47;;;21.48;49.23
40596;BME280;26304;48.794;9.820;2023-02-19T08:00:34;96878.38;;;21.44;50.06
40596;BME280;26304;48.794;9.820;2023-02-19T08:06:16;96871.56;;;21.32;49.97
40596;BME280;26304;48.794;9.820;2023-02-19T08:11:59;96871.16;;;21.27;49.92
40596;BME280;26304;48.794;9.820;2023-02-19T08:18:00;96878.34;;;21.26;49.93
40596;BME280;26304;48.794;9.820;2023-02-19T08:23:43;96901.00;;;21.23;50.11
40596;BME280;26304;48.794;9.820;2023-02-19T08:29:27;96911.22;;;21.21;50.34
40596;BME280;26304;48.794;9.820;2023-02-19T08:35:10;96917.63;;;21.17;50.75
40596;BME280;26304;48.794;9.820;2023-02-19T08:40:53;96939.13;;;21.15;50.67
40596;BME280;26304;48.794;9.820;2023-02-19T08:46:35;96937.63;;;19.51;52.15
40596;BME280;26304;48.794;9.820;2023-02-19T08:52:19;96927.47;;;19.16;50.34
40596;BME280;26304;48.794;9.820;2023-02-19T08:58:01;96918.44;;;19.13;49.48
40596;BME280;26304;48.794;9.820;2023-02-19T09:03:44;96936.44;;;18.50;50.10
40596;BME280;26304;48.794;9.820;2023-02-19T09:09:28;96926.25;;;19.06;49.03
40596;BME280;26304;48.794;9.820;2023-02-19T09:15:10;96929.13;;;19.69;48.09
40596;BME280;26304;48.794;9.820;2023-02-19T09:20:52;96939.00;;;19.75;47.83
40596;BME280;26304;48.794;9.820;2023-02-19T09:26:36;96956.09;;;19.89;48.08
40596;BME280;26304;48.794;9.820;2023-02-19T09:32:18;96970.06;;;19.89;48.36
40596;BME280;26304;48.794;9.820;2023-02-19T09:38:01;96974.94;;;19.87;48.46
40596;BME280;26304;48.794;9.820;2023-02-19T09:43:45;96994.13;;;19.84;48.92
40596;BME280;26304;48.794;9.820;2023-02-19T09:49:30;96993.53;;;19.64;49.47
40596;BME280;26304;48.794;9.820;2023-02-19T09:55:15;97002.03;;;19.84;49.48
40596;BME280;26304;48.794;9.820;2023-02-19T10:01:02;97010.72;;;19.85;49.12
40596;BME280;26304;48.794;9.820;2023-02-19T10:06:46;97017.44;;;19.14;49.90
40596;BME280;26304;48.794;9.820;2023-02-19T10:12:30;97009.06;;;19.35;48.80
40596;BME280;26304;48.794;9.820;2023-02-19T10:18:18;96993.44;;;18.66;49.45
40596;BME280;26304;48.794;9.820;2023-02-19T10:24:02;96999.25;;;18.25;49.65
40596;BME280;26304;48.794;9.820;2023-02-19T10:29:47;96988.31;;;19.34;48.22
40596;BME280;26304;48.794;9.820;2023-02-19T10:35:34;97008.94;;;19.62;48.22
40596;BME280;26304;48.794;9.820;2023-02-19T10:41:18;97006.66;;;19.57;48.02
40596;BME280;26304;48.794;9.820;2023-02-19T10:47:02;97024.25;;;19.49;48.37
40596;BME280;26304;48.794;9.820;2023-02-19T10:52:51;97027.06;;;19.30;48.33
40596;BME280;26304;48.794;9.820;2023-02-19T10:58:34;97031.69;;;19.40;48.56
40596;BME280;26304;48.794;9.820;2023-02-19T11:04:17;97029.53;;;19.49;49.25
40596;BME280;26304;48.794;9.820;2023-02-19T11:10:02;97028.09;;;19.55;48.59
40596;BME280;26304;48.794;9.820;2023-02-19T11:15:50;97017.88;;;19.50;48.90
40596;BME280;26304;48.794;9.820;2023-02-19T11:21:34;97007.81;;;19.59;48.74
40596;BME280;26304;48.794;9.820;2023-02-19T11:27:19;97014.59;;;19.60;50.76
40596;BME280;26304;48.794;9.820;2023-02-19T11:33:21;97022.19;;;19.66;49.04
40596;BME280;26304;48.794;9.820;2023-02-19T11:39:18;97020.28;;;19.63;49.48
40596;BME280;26304;48.794;9.820;2023-02-19T11:45:18;97035.78;;;19.68;49.25
40596;BME280;26304;48.794;9.820;2023-02-19T11:51:15;97036.88;;;19.67;48.93
40596;BME280;26304;48.794;9.820;2023-02-19T11:57:08;97050.06;;;19.67;49.32
40596;BME280;26304;48.794;9.820;2023-02-19T12:09:11;97053.53;;;19.71;49.20
40596;BME280;26304;48.794;9.820;2023-02-19T12:15:41;97059.56;;;19.71;49.14
40596;BME280;26304;48.794;9.820;2023-02-19T12:21:41;97056.56;;;19.73;49.28
40596;BME280;26304;48.794;9.820;2023-02-19T12:27:36;97026.44;;;19.74;49.04
40596;BME280;26304;48.794;9.820;2023-02-19T12:39:45;97028.38;;;19.77;48.74
40596;BME280;26304;48.794;9.820;2023-02-19T12:45:31;97043.72;;;19.71;49.32
40596;BME280;26304;48.794;9.820;2023-02-19T12:51:17;97038.25;;;19.87;48.62
40596;BME280;26304;48.794;9.820;2023-02-19T12:57:05;97026.97;;;19.87;48.84
40596;BME280;26304;48.794;9.820;2023-02-19T13:02:57;97038.09;;;19.73;49.51
40596;BME280;26304;48.794;9.820;2023-02-19T13:08:44;97046.66;;;19.63;49.22
40596;BME280;26304;48.794;9.820;2023-02-19T13:14:32;97046.50;;;19.48;48.53
40596;BME280;26304;48.794;9.820;2023-02-19T13:20:24;97039.91;;;19.35;48.02
40596;BME280;26304;48.794;9.820;2023-02-19T13:26:22;97043.53;;;19.53;48.58
40596;BME280;26304;48.794;9.820;2023-02-19T13:32:21;97045.94;;;19.66;47.84
40596;BME280;26304;48.794;9.820;2023-02-19T13:38:09;97039.56;;;19.70;47.55
40596;BME280;26304;48.794;9.820;2023-02-19T13:43:58;97041.94;;;19.79;47.68
40596;BME280;26304;48.794;9.820;2023-02-19T13:49:47;97045.56;;;19.67;47.79
40596;BME280;26304;48.794;9.820;2023-02-19T13:55:49;97044.84;;;19.70;47.88
40596;BME280;26304;48.794;9.820;2023-02-19T14:07:54;97040.53;;;19.55;48.68
40596;BME280;26304;48.794;9.820;2023-02-19T14:14:22;97040.13;;;19.53;48.93
40596;BME280;26304;48.794;9.820;2023-02-19T14:20:39;97045.44;;;19.56;49.46
40596;BME280;26304;48.794;9.820;2023-02-19T14:26:25;97034.91;;;19.56;49.18
40596;BME280;26304;48.794;9.820;2023-02-19T14:32:11;97062.78;;;19.57;49.60
40596;BME280;26304;48.794;9.820;2023-02-19T14:37:58;97069.88;;;19.50;49.99
40596;BME280;26304;48.794;9.820;2023-02-19T14:43:43;97079.31;;;19.54;49.80
40596;BME280;26304;48.794;9.820;2023-02-19T14:49:29;97092.59;;;19.62;49.40
40596;BME280;26304;48.794;9.820;2023-02-19T14:55:17;97082.38;;;19.56;49.44
40596;BME280;26304;48.794;9.820;2023-02-19T15:01:03;97095.56;;;19.56;49.34
40596;BME280;26304;48.794;9.820;2023-02-19T15:06:49;97096.78;;;19.63;49.09
40596;BME280;26304;48.794;9.820;2023-02-19T15:12:37;97094.75;;;19.52;49.81
40596;BME280;26304;48.794;9.820;2023-02-19T15:18:24;97109.50;;;19.57;49.84
40596;BME280;26304;48.794;9.820;2023-02-19T15:24:07;97123.16;;;19.63;49.22
40596;BME280;26304;48.794;9.820;2023-02-19T15:29:51;97123.56;;;19.38;49.17
40596;BME280;26304;48.794;9.820;2023-02-19T15:35:35;97109.34;;;19.46;49.48
40596;BME280;26304;48.794;9.820;2023-02-19T15:41:20;97103.41;;;19.53;48.88
40596;BME280;26304;48.794;9.820;2023-02-19T15:47:09;97090.56;;;19.51;49.01
40596;BME280;26304;48.794;9.820;2023-02-19T15:52:58;97099.63;;;19.50;49.19
40596;BME280;26304;48.794;9.820;2023-02-19T15:58:46;97100.72;;;19.49;49.11
40596;BME280;26304;48.794;9.820;2023-02-19T16:04:33;97112.81;;;19.50;49.47
40596;BME280;26304;48.794;9.820;2023-02-19T16:10:22;97108.59;;;19.46;49.23
40596;BME280;26304;48.794;9.820;2023-02-19T16:16:12;97104.75;;;19.39;49.87
40596;BME280;26304;48.794;9.820;2023-02-19T16:21:57;97121.41;;;19.44;49.53
40596;BME280;26304;48.794;9.820;2023-02-19T16:27:41;97126.53;;;19.33;49.31
40596;BME280;26304;48.794;9.820;2023-02-19T16:33:33;97121.50;;;19.54;49.45
40596;BME280;26304;48.794;9.820;2023-02-19T16:39:21;97122.91;;;19.45;49.63
40596;BME280;26304;48.794;9.820;2023-02-19T16:45:06;97132.03;;;19.51;50.24
40596;BME280;26304;48.794;9.820;2023-02-19T16:50:49;97123.84;;;19.59;49.98
40596;BME280;26304;48.794;9.820;2023-02-19T16:56:31;97113.03;;;19.38;51.47
40596;BME280;26304;48.794;9.820;2023-02-19T17:02:19;97133.91;;;19.77;51.92
40596;BME280;26304;48.794;9.820;2023-02-19T17:08:24;97144.63;;;19.65;51.10
40596;BME280;26304;48.794;9.820;2023-02-19T17:14:07;97154.78;;;19.63;51.02
40596;BME280;26304;48.794;9.820;2023-02-19T17:19:51;97154.72;;;19.59;50.94
40596;BME280;26304;48.794;9.820;2023-02-19T17:25:33;97149.53;;;19.63;50.48
40596;BME280;26304;48.794;9.820;2023-02-19T17:31:16;97166.00;;;19.56;51.10
40596;BME280;26304;48.794;9.820;2023-02-19T17:37:00;97172.03;;;19.56;50.79
40596;BME280;26304;48.794;9.820;2023-02-19T17:42:42;97180.66;;;19.53;50.47
40596;BME280;26304;48.794;9.820;2023-02-19T17:48:25;97192.28;;;19.49;50.75
40596;BME280;26304;48.794;9.820;2023-02-19T17:54:08;97208.09;;;19.49;50.62
40596;BME280;26304;48.794;9.820;2023-02-19T17:59:51;97222.88;;;19.30;51.61
40596;BME280;26304;48.794;9.820;2023-02-19T18:05:33;97238.53;;;19.42;51.67
40596;BME280;26304;48.794;9.820;2023-02-19T18:11:18;97246.91;;;19.48;51.91
40596;BME280;26304;48.794;9.820;2023-02-19T18:17:01;97248.88;;;19.55;51.05
40596;BME280;26304;48.794;9.820;2023-02-19T18:22:44;97257.94;;;19.57;51.60
40596;BME280;26304;48.794;9.820;2023-02-19T18:28:28;97275.31;;;19.58;51.78
40596;BME280;26304;48.794;9.820;2023-02-19T18:34:16;97272.44;;;19.44;51.04
40596;BME280;26304;48.794;9.820;2023-02-19T18:39:59;97273.78;;;19.57;51.46
40596;BME280;26304;48.794;9.820;2023-02-19T18:45:43;97273.31;;;19.52;51.36
40596;BME280;26304;48.794;9.820;2023-02-19T18:51:26;97279.41;;;19.56;50.94
40596;BME280;26304;48.794;9.820;2023-02-19T18:57:08;97276.84;;;19.59;51.22
40596;BME280;26304;48.794;9.820;2023-02-19T19:02:55;97276.84;;;19.59;51.19
40596;BME280;26304;48.794;9.820;2023-02-19T19:08:38;97293.47;;;19.64;51.84
40596;BME280;26304;48.794;9.820;2023-02-19T19:14:21;97291.13;;;19.58;51.92
40596;BME280;26304;48.794;9.820;2023-02-19T19:20:06;97287.06;;;19.65;51.57
40596;BME280;26304;48.794;9.820;2023-02-19T19:25:49;97297.22;;;19.63;52.10
40596;BME280;26304;48.794;9.820;2023-02-19T19:31:33;97303.91;;;19.56;51.79
40596;BME280;26304;48.794;9.820;2023-02-19T19:37:17;97299.34;;;19.53;51.68
40596;BME280;26304;48.794;9.820;2023-02-19T19:42:59;97304.13;;;19.48;51.99
40596;BME280;26304;48.794;9.820;2023-02-19T19:48:42;97308.41;;;19.56;51.84
40596;BME280;26304;48.794;9.820;2023-02-19T19:54:26;97315.13;;;19.50;51.54
40596;BME280;26304;48.794;9.820;2023-02-19T20:00:12;97318.50;;;19.50;51.71
40596;BME280;26304;48.794;9.820;2023-02-19T20:05:56;97311.59;;;19.42;50.52
40596;BME280;26304;48.794;9.820;2023-02-19T20:11:48;97314.59;;;18.39;48.91
40596;BME280;26304;48.794;9.820;2023-02-19T20:17:31;97310.44;;;18.38;47.89
40596;BME280;26304;48.794;9.820;2023-02-19T20:23:14;97310.16;;;18.24;48.05
40596;BME280;26304;48.794;9.820;2023-02-19T20:28:57;97300.72;;;18.23;47.53
40596;BME280;26304;48.794;9.820;2023-02-19T20:34:40;97309.72;;;18.22;47.73
40596;BME280;26304;48.794;9.820;2023-02-19T20:40:22;97325.91;;;18.40;47.94
40596;BME280;26304;48.794;9.820;2023-02-19T20:46:08;97320.28;;;18.41;48.26
40596;BME280;26304;48.794;9.820;2023-02-19T20:51:53;97314.06;;;18.49;48.80
40596;BME280;26304;48.794;9.820;2023-02-19T20:57:36;97301.31;;;18.51;48.38
40596;BME280;26304;48.794;9.820;2023-02-19T21:03:20;97303.78;;;18.44;48.92
40596;BME280;26304;48.794;9.820;2023-02-19T21:09:02;97320.69;;;18.43;48.99
40596;BME280;26304;48.794;9.820;2023-02-19T21:14:46;97311.97;;;18.39;49.19
40596;BME280;26304;48.794;9.820;2023-02-19T21:20:29;97308.63;;;18.42;49.41
40596;BME280;26304;48.794;9.820;2023-02-19T21:26:12;97313.09;;;18.38;49.49
40596;BME280;26304;48.794;9.820;2023-02-19T21:31:55;97318.69;;;18.37;49.41
40596;BME280;26304;48.794;9.820;2023-02-19T21:37:41;97321.66;;;18.35;50.07
40596;BME280;26304;48.794;9.820;2023-02-19T21:43:24;97331.34;;;18.31;50.08
40596;BME280;26304;48.794;9.820;2023-02-19T21:49:06;97321.91;;;18.30;50.15
40596;BME280;26304;48.794;9.820;2023-02-19T21:54:50;97311.31;;;18.26;50.15
40596;BME280;26304;48.794;9.820;2023-02-19T22:00:33;97311.66;;;18.25;50.45
40596;BME280;26304;48.794;9.820;2023-02-19T22:06:15;97307.94;;;18.26;49.91
40596;BME280;26304;48.794;9.820;2023-02-19T22:12:00;97304.09;;;18.23;50.37
40596;BME280;26304;48.794;9.820;2023-02-19T22:17:42;97308.63;;;18.23;50.30
40596;BME280;26304;48.794;9.820;2023-02-19T22:23:25;97319.50;;;18.21;49.86
40596;BME280;26304;48.794;9.820;2023-02-19T22:29:11;97325.09;;;18.20;50.04
40596;BME280;26304;48.794;9.820;2023-02-19T22:34:53;97326.53;;;18.17;50.56
40596;BME280;26304;48.794;9.820;2023-02-19T22:40:36;97337.84;;;18.18;50.04
40596;BME280;26304;48.794;9.820;2023-02-19T22:46:22;97329.09;;;18.13;50.20
40596;BME280;26304;48.794;9.820;2023-02-19T22:52:06;97334.03;;;18.15;50.25
40596;BME280;26304;48.794;9.820;2023-02-19T22:57:49;97319.25;;;18.10;50.27
40596;BME280;26304;48.794;9.820;2023-02-19T23:03:33;97328.28;;;18.09;50.32
40596;BME280;26304;48.794;9.820;2023-02-19T23:09:17;97351.25;;;18.12;50.51
40596;BME280;26304;48.794;9.820;2023-02-19T23:14:59;97350.41;;;18.08;50.53
40596;BME280;26304;48.794;9.820;2023-02-19T23:20:43;97348.47;;;18.05;50.77
40596;BME280;26304;48.794;9.820;2023-02-19T23:26:26;97343.97;;;18.06;50.89
40596;BME280;26304;48.794;9.820;2023-02-19T23:32:09;97339.38;;;18.03;50.62
40596;BME280;26304;48.794;9.820;2023-02-19T23:37:53;97350.25;;;18.01;50.59
40596;BME280;26304;48.794;9.820;2023-02-19T23:43:36;97350.94;;;17.98;50.70
40596;BME280;26304;48.794;9.820;2023-02-19T23:49:19;97348.28;;;17.98;50.54
40596;BME280;26304;48.794;9.820;2023-02-19T23:55:03;97348.22;;;17.94;51.14
